createdAt,value
2023-03-03T00:00:06.309Z,6.37
2023-03-03T00:02:33.069Z,6.53
2023-03-03T00:05:00.102Z,5.70
2023-03-03T00:07:26.854Z,6.50
2023-03-03T00:09:53.654Z,5.73
2023-03-03T00:12:27.885Z,5.90
2023-03-03T00:14:55.049Z,6.30
2023-03-03T00:17:30.448Z,6.47
2023-03-03T00:19:57.365Z,6.17
2023-03-03T00:22:30.866Z,6.33
2023-03-03T00:25:26.655Z,6.37
2023-03-03T00:27:53.361Z,5.33
2023-03-03T00:30:27.914Z,6.23
2023-03-03T00:32:55.743Z,5.23
2023-03-03T00:35:31.552Z,6.93
2023-03-03T00:38:01.125Z,5.90
2023-03-03T00:40:35.357Z,6.17
2023-03-03T00:43:12.053Z,5.53
2023-03-03T00:45:38.976Z,5.37
2023-03-03T00:48:20.942Z,5.87
2023-03-03T00:50:47.678Z,5.97
2023-03-03T00:53:19.708Z,6.20
2023-03-03T00:55:48.474Z,6.13
2023-03-03T00:58:15.558Z,6.30
2023-03-03T01:00:42.545Z,6.17
2023-03-03T01:03:14.957Z,6.10
2023-03-03T01:05:42.331Z,5.87
2023-03-03T01:08:09.091Z,5.43
2023-03-03T01:10:40.295Z,5.40
2023-03-03T01:13:07.763Z,5.60
2023-03-03T01:15:34.643Z,5.40
2023-03-03T01:18:01.797Z,5.77
2023-03-03T01:20:28.567Z,5.17
2023-03-03T01:22:55.443Z,5.57
2023-03-03T01:25:22.163Z,6.47
2023-03-03T01:27:48.832Z,6.53
2023-03-03T01:30:16.058Z,5.70
2023-03-03T01:32:42.738Z,9.53
2023-03-03T01:35:09.852Z,6.40
2023-03-03T01:37:36.617Z,5.70
2023-03-03T01:40:05.615Z,5.50
2023-03-03T01:42:32.687Z,6.17
2023-03-03T01:45:26.089Z,5.97
2023-03-03T01:48:23.005Z,5.70
2023-03-03T01:50:55.148Z,6.20
2023-03-03T01:53:45.333Z,5.70
2023-03-03T01:56:12.515Z,6.37
2023-03-03T01:58:50.071Z,5.70
2023-03-03T02:01:21.570Z,6.10
2023-03-03T02:03:48.833Z,5.90
2023-03-03T02:06:19.756Z,5.23
2023-03-03T02:09:15.275Z,6.00
2023-03-03T02:11:44.396Z,6.47
2023-03-03T02:14:12.641Z,5.20
2023-03-03T02:16:40.718Z,5.43
2023-03-03T02:19:18.669Z,5.13
2023-03-03T02:21:45.444Z,5.60
2023-03-03T02:24:53.219Z,6.00
2023-03-03T02:27:20.160Z,5.10
2023-03-03T02:29:46.935Z,5.97
2023-03-03T02:32:13.715Z,4.97
2023-03-03T02:34:49.156Z,6.20
2023-03-03T02:37:16.230Z,5.93
2023-03-03T02:39:44.009Z,5.83
2023-03-03T02:42:17.261Z,5.90
2023-03-03T02:44:44.148Z,5.10
2023-03-03T02:47:10.898Z,5.70
2023-03-03T02:49:37.853Z,5.50
2023-03-03T02:52:09.702Z,6.20
2023-03-03T02:54:37.404Z,6.03
2023-03-03T02:57:05.222Z,5.60
2023-03-03T02:59:31.951Z,6.03
2023-03-03T03:01:58.750Z,6.20
2023-03-03T03:04:27.264Z,5.67
2023-03-03T03:06:54.883Z,5.73
2023-03-03T03:09:23.541Z,6.53
2023-03-03T03:11:50.270Z,5.80
2023-03-03T03:14:17.039Z,6.47
2023-03-03T03:16:43.772Z,6.30
2023-03-03T03:19:10.517Z,5.07
2023-03-03T03:21:37.255Z,5.67
2023-03-03T03:24:04.077Z,5.50
2023-03-03T03:26:30.831Z,6.07
2023-03-03T03:28:57.530Z,5.93
2023-03-03T03:31:24.266Z,6.23
2023-03-03T03:33:51.958Z,6.10
2023-03-03T03:36:18.730Z,6.37
2023-03-03T03:38:45.453Z,5.87
2023-03-03T03:41:13.705Z,5.83
2023-03-03T03:43:40.619Z,5.33
2023-03-03T03:46:07.658Z,6.67
2023-03-03T03:48:34.588Z,5.47
2023-03-03T03:51:01.261Z,5.90
2023-03-03T03:53:28.092Z,6.80
2023-03-03T03:55:54.879Z,5.90
2023-03-03T03:58:21.826Z,6.40
2023-03-03T04:00:48.621Z,4.93
2023-03-03T04:03:15.819Z,5.50
2023-03-03T04:05:43.302Z,6.13
2023-03-03T04:08:10.240Z,6.23
2023-03-03T04:10:36.990Z,8.00
2023-03-03T04:13:03.723Z,5.30
2023-03-03T04:15:30.488Z,5.70
2023-03-03T04:17:57.263Z,5.80
2023-03-03T04:20:24.157Z,5.70
2023-03-03T04:22:50.891Z,6.80
2023-03-03T04:25:19.275Z,6.13
2023-03-03T04:27:46.199Z,6.63
2023-03-03T04:30:15.173Z,5.97
2023-03-03T04:32:42.371Z,6.37
2023-03-03T04:38:32.158Z,5.70
2023-03-03T04:40:58.925Z,6.30
2023-03-03T04:43:25.691Z,6.13
2023-03-03T04:45:52.408Z,6.07
2023-03-03T04:48:19.132Z,6.07
2023-03-03T04:50:45.837Z,6.57
2023-03-03T04:53:12.519Z,6.30
2023-03-03T04:55:40.791Z,6.03
2023-03-03T04:58:09.376Z,6.77
2023-03-03T05:00:36.227Z,6.00
2023-03-03T05:03:02.975Z,6.30
2023-03-03T05:05:29.660Z,5.93
2023-03-03T05:07:56.378Z,6.33
2023-03-03T05:10:23.069Z,6.23
2023-03-03T05:12:49.789Z,6.27
2023-03-03T05:15:16.601Z,6.60
2023-03-03T05:17:43.341Z,6.47
2023-03-03T05:20:11.264Z,7.17
2023-03-03T05:22:38.052Z,6.70
2023-03-03T05:25:05.448Z,6.20
2023-03-03T05:27:32.241Z,6.57
2023-03-03T05:29:58.965Z,5.77
2023-03-03T05:32:25.717Z,6.43
2023-03-03T05:34:52.585Z,6.77
2023-03-03T05:37:19.319Z,6.60
2023-03-03T05:39:46.023Z,6.40
2023-03-03T05:42:13.560Z,6.50
2023-03-03T05:44:40.542Z,6.80
2023-03-03T05:47:07.574Z,7.07
2023-03-03T05:49:34.371Z,6.03
2023-03-03T05:52:01.772Z,7.00
2023-03-03T05:54:28.521Z,5.90
2023-03-03T05:56:57.447Z,6.80
2023-03-03T05:59:24.868Z,6.43
2023-03-03T06:01:51.614Z,6.70
2023-03-03T06:04:18.445Z,6.60
2023-03-03T06:06:45.233Z,7.07
2023-03-03T06:09:11.953Z,6.20
2023-03-03T06:11:38.972Z,7.20
2023-03-03T06:14:05.746Z,10.80
2023-03-03T06:16:32.584Z,6.57
2023-03-03T06:18:59.379Z,6.40
2023-03-03T06:21:26.445Z,6.00
2023-03-03T06:23:53.224Z,6.80
2023-03-03T06:26:19.954Z,7.00
2023-03-03T06:28:46.852Z,7.07
2023-03-03T06:31:13.529Z,7.63
2023-03-03T06:33:42.183Z,5.83
2023-03-03T06:36:08.956Z,7.47
2023-03-03T06:38:35.639Z,7.57
2023-03-03T06:41:04.530Z,7.67
2023-03-03T06:43:31.190Z,10.60
2023-03-03T06:45:58.037Z,7.73
2023-03-03T06:48:24.875Z,7.00
2023-03-03T06:50:51.566Z,7.13
2023-03-03T06:53:19.236Z,7.30
2023-03-03T06:55:46.058Z,7.07
2023-03-03T06:58:18.506Z,6.60
2023-03-03T07:00:58.390Z,7.13
2023-03-03T07:03:29.626Z,7.10
2023-03-03T07:05:56.482Z,7.63
2023-03-03T07:08:25.380Z,6.80
2023-03-03T07:10:53.218Z,6.50
2023-03-03T07:13:22.778Z,7.27
2023-03-03T07:15:52.092Z,6.90
2023-03-03T07:18:40.718Z,7.00
2023-03-03T07:21:17.773Z,7.67
2023-03-03T07:23:45.961Z,8.13
2023-03-03T07:26:15.441Z,8.00
2023-03-03T07:29:03.515Z,7.00
2023-03-03T07:31:36.972Z,7.23
2023-03-03T07:34:21.870Z,7.33
2023-03-03T07:36:55.493Z,8.07
2023-03-03T07:39:35.531Z,7.37
2023-03-03T07:42:29.038Z,7.50
2023-03-03T07:44:59.024Z,7.47
2023-03-03T07:47:28.470Z,7.70
2023-03-03T07:49:59.626Z,7.87
2023-03-03T07:52:41.769Z,7.80
2023-03-03T07:55:35.767Z,7.83
2023-03-03T07:58:24.780Z,8.83
2023-03-03T08:01:22.581Z,7.23
2023-03-03T08:03:51.118Z,7.93
2023-03-03T08:06:35.867Z,7.80
2023-03-03T08:09:25.753Z,7.27
2023-03-03T08:12:10.298Z,7.80
2023-03-03T08:14:38.684Z,6.90
2023-03-03T08:17:19.582Z,7.57
2023-03-03T08:19:46.441Z,7.93
2023-03-03T08:22:16.462Z,7.67
2023-03-03T08:24:43.178Z,7.53
2023-03-03T08:27:09.852Z,7.93
2023-03-03T08:29:36.605Z,8.40
2023-03-03T08:32:03.476Z,8.13
2023-03-03T08:34:30.205Z,8.20
2023-03-03T08:36:58.476Z,8.50
2023-03-03T08:39:25.408Z,8.80
2023-03-03T08:41:52.180Z,7.50
2023-03-03T08:44:20.448Z,7.33
2023-03-03T08:46:47.351Z,8.07
2023-03-03T08:49:14.320Z,7.87
2023-03-03T08:51:41.154Z,8.00
2023-03-03T08:54:08.244Z,9.00
2023-03-03T08:56:35.012Z,8.43
2023-03-03T08:59:02.998Z,7.37
2023-03-03T09:01:32.051Z,7.73
2023-03-03T09:03:59.170Z,8.27
2023-03-03T09:06:25.947Z,7.20
2023-03-03T09:08:54.693Z,8.73
2023-03-03T09:11:27.402Z,8.10
2023-03-03T09:14:11.767Z,9.07
2023-03-03T09:16:41.843Z,7.63
2023-03-03T09:19:21.588Z,7.90
2023-03-03T09:21:48.636Z,7.37
2023-03-03T09:24:30.438Z,8.23
2023-03-03T09:26:59.039Z,7.90
2023-03-03T09:29:37.440Z,7.30
2023-03-03T09:32:34.854Z,8.93
2023-03-03T09:35:30.364Z,8.30
2023-03-03T09:37:57.175Z,8.53
2023-03-03T09:40:58.793Z,6.97
2023-03-03T09:43:47.161Z,7.57
2023-03-03T09:46:16.962Z,7.33
2023-03-03T09:49:20.059Z,7.17
2023-03-03T09:51:56.565Z,7.17
2023-03-03T09:54:54.974Z,7.00
2023-03-03T09:57:29.284Z,7.67
2023-03-03T10:00:43.428Z,8.10
2023-03-03T10:03:42.053Z,8.13
2023-03-03T10:06:14.094Z,7.40
2023-03-03T10:09:06.586Z,7.57
2023-03-03T10:11:42.878Z,7.43
2023-03-03T10:14:27.268Z,8.27
2023-03-03T10:17:15.106Z,8.33
2023-03-03T10:19:58.503Z,7.60
2023-03-03T10:22:38.032Z,7.63
2023-03-03T10:25:05.186Z,8.23
2023-03-03T10:27:37.857Z,8.33
2023-03-03T10:30:44.244Z,7.63
2023-03-03T10:33:24.675Z,7.63
2023-03-03T10:36:06.597Z,6.73
2023-03-03T10:38:43.023Z,8.47
2023-03-03T10:41:38.462Z,8.57
2023-03-03T10:44:39.475Z,8.27
2023-03-03T10:47:31.081Z,8.07
2023-03-03T10:50:04.529Z,7.93
2023-03-03T10:52:51.926Z,7.70
2023-03-03T10:55:28.414Z,8.23
2023-03-03T10:58:13.009Z,7.87
2023-03-03T11:01:01.398Z,7.83
2023-03-03T11:03:58.045Z,8.13
2023-03-03T11:06:52.370Z,7.23
2023-03-03T11:09:46.376Z,7.93
2023-03-03T11:12:28.070Z,8.43
2023-03-03T11:15:14.541Z,7.37
2023-03-03T11:17:50.222Z,6.73
2023-03-03T11:20:46.068Z,7.67
2023-03-03T11:23:24.694Z,8.07
2023-03-03T11:26:07.575Z,6.43
2023-03-03T11:28:41.621Z,6.80
2023-03-03T11:31:32.060Z,8.10
2023-03-03T11:34:09.166Z,7.87
2023-03-03T11:37:02.017Z,7.70
2023-03-03T11:39:28.889Z,8.40
2023-03-03T11:42:13.993Z,7.20
2023-03-03T11:45:01.059Z,7.50
2023-03-03T11:47:42.502Z,7.20
2023-03-03T11:50:30.463Z,7.00
2023-03-03T11:53:24.240Z,7.63
2023-03-03T11:56:25.190Z,7.80
2023-03-03T11:59:33.301Z,7.40
2023-03-03T12:02:22.063Z,7.23
2023-03-03T12:05:13.722Z,8.33
2023-03-03T12:07:57.054Z,6.90
2023-03-03T12:10:26.910Z,7.87
2023-03-03T12:13:01.755Z,8.07
2023-03-03T12:15:50.718Z,6.73
2023-03-03T12:18:26.027Z,6.67
2023-03-03T12:21:13.225Z,6.57
2023-03-03T12:24:05.026Z,6.70
2023-03-03T12:26:34.532Z,7.40
2023-03-03T12:29:13.656Z,7.03
2023-03-03T12:31:56.684Z,7.33
2023-03-03T12:34:38.821Z,6.87
2023-03-03T12:37:11.686Z,7.13
2023-03-03T12:40:03.110Z,6.90
2023-03-03T12:42:50.029Z,8.03
2023-03-03T12:45:34.812Z,7.30
2023-03-03T12:48:04.793Z,6.60
2023-03-03T12:51:00.830Z,7.00
2023-03-03T12:53:52.053Z,6.90
2023-03-03T12:56:41.654Z,6.50
2023-03-03T12:59:18.245Z,7.20
2023-03-03T13:02:07.206Z,6.20
2023-03-03T13:05:19.375Z,7.00
2023-03-03T13:08:06.302Z,6.90
2023-03-03T13:10:36.124Z,6.97
2023-03-03T13:13:21.693Z,7.53
2023-03-03T13:16:16.852Z,8.43
2023-03-03T13:19:10.011Z,7.70
2023-03-03T13:21:47.193Z,9.20
2023-03-03T13:24:37.409Z,8.37
2023-03-03T13:27:16.936Z,9.40
2023-03-03T13:30:14.550Z,14.20
2023-03-03T13:33:02.605Z,22.77
2023-03-03T13:35:32.112Z,28.70
2023-03-03T13:38:00.814Z,35.07
2023-03-03T13:41:02.999Z,33.37
2023-03-03T13:43:43.673Z,41.70
2023-03-03T13:46:25.803Z,49.60
2023-03-03T13:49:16.835Z,40.23
2023-03-03T13:52:05.349Z,47.10
2023-03-03T13:54:59.374Z,48.50
2023-03-03T13:57:54.505Z,46.37
2023-03-03T14:00:57.461Z,46.83
2023-03-03T14:03:34.930Z,42.93
2023-03-03T14:06:09.232Z,45.20
2023-03-03T14:08:50.897Z,38.63
2023-03-03T14:11:22.276Z,45.30
2023-03-03T14:13:51.543Z,39.03
2023-03-03T14:16:56.171Z,39.57
2023-03-03T14:19:40.565Z,41.90
2023-03-03T14:22:50.975Z,31.50
2023-03-03T14:25:18.058Z,26.70
2023-03-03T14:27:47.800Z,33.87
2023-03-03T14:30:28.165Z,29.33
2023-03-03T14:33:08.447Z,29.87
2023-03-03T14:35:40.541Z,29.10
2023-03-03T14:38:21.414Z,31.70
2023-03-03T14:40:49.373Z,28.43
2023-03-03T14:43:36.114Z,26.07
2023-03-03T14:46:36.162Z,27.67
2023-03-03T14:49:07.413Z,22.73
2023-03-03T14:51:41.811Z,19.80
2023-03-03T14:54:40.744Z,19.50
2023-03-03T14:57:10.728Z,19.80
2023-03-03T14:59:37.994Z,20.10
2023-03-03T15:02:16.551Z,19.63
2023-03-03T15:04:44.975Z,20.87
2023-03-03T15:07:35.309Z,16.37
2023-03-03T15:10:03.918Z,18.43
2023-03-03T15:12:33.430Z,18.03
2023-03-03T15:15:18.400Z,16.67
2023-03-03T15:17:50.808Z,15.40
2023-03-03T15:20:26.419Z,16.90
2023-03-03T15:23:05.228Z,19.37
2023-03-03T15:25:43.668Z,19.57
2023-03-03T15:28:14.182Z,18.53
2023-03-03T15:31:14.561Z,17.73
2023-03-03T15:33:46.441Z,17.47
2023-03-03T15:36:29.540Z,18.60
2023-03-03T15:39:11.380Z,16.87
2023-03-03T15:41:44.969Z,16.73
2023-03-03T15:44:35.851Z,17.00
2023-03-03T15:47:03.532Z,17.07
2023-03-03T15:50:07.870Z,16.63
2023-03-03T15:53:02.906Z,17.30
2023-03-03T15:55:41.552Z,16.60
2023-03-03T15:58:26.888Z,16.73
2023-03-03T16:01:30.120Z,17.10
2023-03-03T16:04:04.484Z,18.13
2023-03-03T16:06:38.188Z,18.20
2023-03-03T16:09:29.676Z,18.63
2023-03-03T16:12:11.800Z,17.20
2023-03-03T16:14:53.864Z,17.50
2023-03-03T16:17:39.485Z,16.50
2023-03-03T16:20:15.237Z,17.80
2023-03-03T16:23:13.287Z,17.93
2023-03-03T16:25:43.028Z,16.77
2023-03-03T16:28:38.834Z,17.40
2023-03-03T16:31:13.216Z,16.67
2023-03-03T16:33:44.263Z,18.17
2023-03-03T16:36:22.630Z,17.30
2023-03-03T16:38:54.777Z,18.23
2023-03-03T16:41:33.658Z,16.53
2023-03-03T16:44:18.998Z,19.90
2023-03-03T16:46:50.556Z,17.30
2023-03-03T16:49:26.105Z,17.37
2023-03-03T16:52:07.381Z,17.43
2023-03-03T16:54:44.597Z,16.13
2023-03-03T16:57:53.826Z,17.20
2023-03-03T17:00:36.842Z,16.10
2023-03-03T17:03:18.277Z,16.73
2023-03-03T17:06:00.523Z,16.40
2023-03-03T17:09:03.022Z,16.80
2023-03-03T17:11:39.942Z,17.30
2023-03-03T17:14:06.590Z,16.67
2023-03-03T17:16:52.629Z,17.37
2023-03-03T17:19:44.667Z,14.50
2023-03-03T17:22:48.465Z,15.17
2023-03-03T17:25:36.370Z,15.93
2023-03-03T17:28:29.329Z,18.17
2023-03-03T17:31:23.620Z,15.70
2023-03-03T17:33:56.214Z,16.63
2023-03-03T17:36:45.912Z,15.63
2023-03-03T17:39:15.685Z,19.07
2023-03-03T17:41:57.473Z,17.27
2023-03-03T17:45:01.574Z,18.60
2023-03-03T17:47:37.198Z,18.70
2023-03-03T17:50:31.862Z,18.00
2023-03-03T17:53:11.868Z,17.93
2023-03-03T17:55:53.917Z,18.53
2023-03-03T17:58:58.297Z,16.73
2023-03-03T18:01:57.011Z,21.10
2023-03-03T18:04:45.417Z,18.53
2023-03-03T18:07:30.748Z,19.77
2023-03-03T18:10:15.624Z,20.43
2023-03-03T18:13:14.379Z,18.30
2023-03-03T18:16:11.562Z,19.60
2023-03-03T18:18:41.248Z,20.30
2023-03-03T18:21:10.766Z,21.07
2023-03-03T18:23:43.057Z,18.63
2023-03-03T18:26:29.952Z,20.90
2023-03-03T18:29:19.895Z,19.40
2023-03-03T18:31:49.690Z,19.37
2023-03-03T18:34:41.328Z,18.97
2023-03-03T18:37:29.796Z,21.30
2023-03-03T18:40:02.474Z,20.77
2023-03-03T18:42:45.752Z,22.40
2023-03-03T18:45:32.365Z,20.67
2023-03-03T18:48:04.665Z,21.70
2023-03-03T18:50:35.428Z,20.60
2023-03-03T18:53:28.045Z,20.77
2023-03-03T18:55:57.200Z,21.03
2023-03-03T18:58:27.757Z,19.83
2023-03-03T19:00:59.921Z,19.27
2023-03-03T19:03:49.466Z,19.00
2023-03-03T19:06:37.993Z,19.60
2023-03-03T19:09:06.569Z,18.80
2023-03-03T19:11:52.168Z,17.27
2023-03-03T19:14:32.290Z,17.00
2023-03-03T19:17:20.855Z,16.07
2023-03-03T19:20:12.900Z,15.80
2023-03-03T19:22:50.885Z,16.17
2023-03-03T19:25:27.250Z,14.47
2023-03-03T19:28:45.240Z,12.90
2023-03-03T19:31:32.625Z,13.67
2023-03-03T19:34:21.610Z,15.83
2023-03-03T19:36:57.937Z,13.17
2023-03-03T19:39:46.384Z,13.50
2023-03-03T19:42:30.899Z,13.03
2023-03-03T19:45:00.698Z,13.23
2023-03-03T19:47:44.532Z,12.47
2023-03-03T19:50:31.853Z,11.60
2023-03-03T19:53:36.115Z,10.80
2023-03-03T19:56:08.482Z,11.77
2023-03-03T19:58:44.169Z,10.93
2023-03-03T20:01:41.723Z,10.63
2023-03-03T20:04:32.881Z,11.07
2023-03-03T20:07:02.678Z,13.17
2023-03-03T20:09:56.816Z,10.97
2023-03-03T20:12:47.927Z,10.20
2023-03-03T20:15:23.183Z,10.80
2023-03-03T20:18:10.071Z,9.03
2023-03-03T20:21:05.868Z,9.67
2023-03-03T20:24:03.267Z,10.17
2023-03-03T20:26:38.836Z,9.77
2023-03-03T20:29:28.922Z,10.80
2023-03-03T20:32:11.590Z,9.40
2023-03-03T20:34:56.881Z,10.00
2023-03-03T20:37:44.570Z,9.30
2023-03-03T20:40:27.157Z,8.57
2023-03-03T20:43:20.457Z,9.13
2023-03-03T20:45:56.352Z,9.17
2023-03-03T20:48:51.203Z,9.70
2023-03-03T20:51:54.668Z,9.07
2023-03-03T20:54:27.171Z,12.00
2023-03-03T20:57:03.716Z,17.70
2023-03-03T20:59:33.236Z,18.33
2023-03-03T21:02:32.235Z,20.27
2023-03-03T21:05:17.499Z,21.37
2023-03-03T21:07:56.998Z,21.63
2023-03-03T21:10:26.586Z,27.63
2023-03-03T21:12:58.976Z,23.50
2023-03-03T21:15:31.856Z,23.87
2023-03-03T21:18:00.009Z,25.07
2023-03-03T21:20:34.650Z,26.60
2023-03-03T21:23:02.517Z,27.30
2023-03-03T21:25:53.025Z,28.90
2023-03-03T21:28:32.613Z,26.37
2023-03-03T21:31:15.765Z,27.67
2023-03-03T21:33:51.669Z,32.33
2023-03-03T21:36:21.574Z,23.23
2023-03-03T21:38:48.595Z,23.27
2023-03-03T21:41:17.163Z,22.43
2023-03-03T21:43:48.848Z,23.00
2023-03-03T21:46:23.482Z,20.10
2023-03-03T21:48:51.484Z,20.13
2023-03-03T21:51:20.322Z,22.00
2023-03-03T21:53:47.714Z,19.40
2023-03-03T21:56:15.118Z,18.37
2023-03-03T21:58:42.968Z,17.57
2023-03-03T22:01:09.748Z,17.77
2023-03-03T22:03:36.554Z,17.60
2023-03-03T22:06:03.503Z,17.53
2023-03-03T22:08:30.232Z,16.80
2023-03-03T22:10:57.060Z,17.13
2023-03-03T22:13:26.122Z,17.10
2023-03-03T22:15:53.906Z,15.63
2023-03-03T22:18:21.086Z,17.93
2023-03-03T22:20:48.596Z,14.77
2023-03-03T22:23:16.028Z,15.20
2023-03-03T22:25:42.791Z,14.77
2023-03-03T22:28:09.564Z,13.20
2023-03-03T22:30:36.821Z,14.87
2023-03-03T22:33:03.817Z,13.27
2023-03-03T22:35:30.813Z,14.40
2023-03-03T22:37:57.898Z,14.13
2023-03-03T22:40:24.624Z,14.40
2023-03-03T22:42:51.483Z,12.90
2023-03-03T22:45:18.588Z,13.53
2023-03-03T22:47:45.306Z,13.33
2023-03-03T22:50:13.037Z,12.03
2023-03-03T22:52:39.833Z,12.87
2023-03-03T22:55:07.100Z,12.57
2023-03-03T22:57:33.988Z,13.07
2023-03-03T23:00:02.317Z,12.07
2023-03-03T23:02:29.886Z,12.40
2023-03-03T23:05:01.043Z,12.27
2023-03-03T23:07:28.949Z,14.83
2023-03-03T23:09:56.177Z,11.67
2023-03-03T23:12:23.560Z,13.03
2023-03-03T23:14:50.302Z,12.03
2023-03-03T23:17:17.109Z,12.13
2023-03-03T23:19:46.198Z,11.90
2023-03-03T23:22:13.835Z,12.60
2023-03-03T23:24:41.041Z,12.40
2023-03-03T23:27:10.308Z,11.50
2023-03-03T23:29:37.607Z,12.53
2023-03-03T23:32:05.492Z,11.10
2023-03-03T23:34:32.433Z,10.73
2023-03-03T23:36:59.176Z,11.90
2023-03-03T23:39:26.144Z,11.90
2023-03-03T23:41:52.861Z,11.10
2023-03-03T23:44:19.545Z,11.33
2023-03-03T23:46:46.368Z,11.33
2023-03-03T23:49:13.106Z,10.37
2023-03-03T23:51:39.839Z,11.07
2023-03-03T23:54:06.584Z,12.63
2023-03-03T23:56:33.248Z,10.70
2023-03-03T23:59:00.020Z,11.13
